createdAt,value
2023-02-06T00:02:37.602Z,103.15
2023-02-06T00:05:25.394Z,128.23
2023-02-06T00:08:12.888Z,115.93
2023-02-06T00:11:04.624Z,122.40
2023-02-06T00:13:52.100Z,131.50
2023-02-06T00:16:39.652Z,141.18
2023-02-06T00:19:28.464Z,129.60
2023-02-06T00:22:16.139Z,131.30
2023-02-06T00:25:04.208Z,106.30
2023-02-06T00:27:51.642Z,116.35
2023-02-06T00:30:39.037Z,96.18
2023-02-06T00:33:27.074Z,103.88
2023-02-06T00:36:16.617Z,86.82
2023-02-06T00:39:04.785Z,104.13
2023-02-06T00:41:52.682Z,99.32
2023-02-06T00:44:40.135Z,106.57
2023-02-06T00:47:27.679Z,113.20
2023-02-06T00:50:15.792Z,112.35
2023-02-06T00:53:05.421Z,120.55
2023-02-06T00:55:53.093Z,110.05
2023-02-06T00:58:42.297Z,110.18
2023-02-06T01:01:32.216Z,104.45
2023-02-06T01:04:20.012Z,105.32
2023-02-06T01:07:07.454Z,101.72
2023-02-06T01:09:56.092Z,86.32
2023-02-06T01:12:46.100Z,103.63
2023-02-06T01:15:34.049Z,109.22
2023-02-06T01:18:21.959Z,103.65
2023-02-06T01:21:10.550Z,96.82
2023-02-06T01:23:57.890Z,95.22
2023-02-06T01:26:46.638Z,102.93
2023-02-06T01:29:34.426Z,95.43
2023-02-06T01:32:23.410Z,98.75
2023-02-06T01:35:12.486Z,98.10
2023-02-06T01:38:01.464Z,106.40
2023-02-06T01:40:49.472Z,95.35
2023-02-06T01:43:40.796Z,110.70
2023-02-06T01:46:28.424Z,113.10
2023-02-06T01:49:20.570Z,113.18
2023-02-06T01:52:14.417Z,114.65
2023-02-06T01:55:05.302Z,115.30
2023-02-06T01:57:53.154Z,99.80
2023-02-06T02:00:43.247Z,104.20
2023-02-06T02:03:32.466Z,105.80
2023-02-06T02:06:24.088Z,102.65
2023-02-06T02:09:14.099Z,102.95
2023-02-06T02:12:02.336Z,104.03
2023-02-06T02:14:51.845Z,97.72
2023-02-06T02:17:50.439Z,120.38
2023-02-06T02:21:22.596Z,109.93
2023-02-06T02:24:14.653Z,117.57
2023-02-06T02:27:25.290Z,103.03
2023-02-06T02:30:45.867Z,98.95
2023-02-06T02:33:53.847Z,95.35
2023-02-06T02:36:48.042Z,87.45
2023-02-06T02:39:45.055Z,84.70
2023-02-06T02:42:41.997Z,87.18
2023-02-06T02:45:37.518Z,83.95
2023-02-06T02:48:28.367Z,86.13
2023-02-06T02:51:16.587Z,86.28
2023-02-06T02:54:05.731Z,84.07
2023-02-06T02:56:54.395Z,81.88
2023-02-06T02:59:46.853Z,87.07
2023-02-06T03:02:38.922Z,72.25
2023-02-06T03:05:28.080Z,96.57
2023-02-06T03:08:24.621Z,80.90
2023-02-06T03:11:15.178Z,88.95
2023-02-06T03:14:08.827Z,80.20
2023-02-06T03:17:00.772Z,87.63
2023-02-06T03:19:54.533Z,93.05
2023-02-06T03:22:43.847Z,86.57
2023-02-06T03:25:36.976Z,79.97
2023-02-06T03:28:29.837Z,73.43
2023-02-06T03:31:22.087Z,73.28
2023-02-06T03:34:17.079Z,75.40
2023-02-06T03:37:04.512Z,72.13
2023-02-06T03:39:52.011Z,76.57
2023-02-06T03:42:42.361Z,72.53
2023-02-06T03:45:34.136Z,70.93
2023-02-06T03:48:30.302Z,85.68
2023-02-06T03:51:21.112Z,78.73
2023-02-06T03:54:10.497Z,73.38
2023-02-06T03:57:00.970Z,76.30
2023-02-06T03:59:49.127Z,74.90
2023-02-06T04:02:39.604Z,84.32
2023-02-06T04:05:27.393Z,77.40
2023-02-06T04:08:15.258Z,77.65
2023-02-06T04:11:02.682Z,78.82
2023-02-06T04:13:50.037Z,70.90
2023-02-06T04:16:37.290Z,79.15
2023-02-06T04:19:26.427Z,78.28
2023-02-06T04:22:16.375Z,68.57
2023-02-06T04:25:03.961Z,84.60
2023-02-06T04:27:51.610Z,74.97
2023-02-06T04:30:38.959Z,76.60
2023-02-06T04:33:26.431Z,74.32
2023-02-06T04:36:15.531Z,78.97
2023-02-06T04:39:03.731Z,68.43
2023-02-06T04:41:51.360Z,68.78
2023-02-06T04:44:39.193Z,77.15
2023-02-06T04:47:26.559Z,72.25
2023-02-06T04:50:13.923Z,75.60
2023-02-06T04:53:02.757Z,81.85
2023-02-06T04:55:50.269Z,75.13
2023-02-06T04:58:39.025Z,92.97
2023-02-06T05:01:26.954Z,103.07
2023-02-06T05:04:14.740Z,102.40
2023-02-06T05:07:03.438Z,119.80
2023-02-06T05:09:53.964Z,104.20
2023-02-06T05:12:41.669Z,122.47
2023-02-06T05:15:29.362Z,168.13
2023-02-06T05:18:16.832Z,131.32
2023-02-06T05:21:05.374Z,128.07
2023-02-06T05:23:53.021Z,123.90
2023-02-06T05:26:41.809Z,127.95
2023-02-06T05:29:29.610Z,121.95
2023-02-06T05:32:18.269Z,130.23
2023-02-06T05:35:05.845Z,123.60
2023-02-06T05:37:53.470Z,108.80
2023-02-06T05:40:41.275Z,129.43
2023-02-06T05:43:30.378Z,117.72
2023-02-06T05:46:17.712Z,106.47
2023-02-06T05:49:05.637Z,114.53
2023-02-06T05:51:53.034Z,112.78
2023-02-06T05:54:40.511Z,109.93
2023-02-06T05:57:28.023Z,104.20
2023-02-06T06:00:17.903Z,107.63
2023-02-06T06:03:05.693Z,99.68
2023-02-06T06:05:53.523Z,101.90
2023-02-06T06:08:41.194Z,113.13
2023-02-06T06:11:29.500Z,115.43
2023-02-06T06:14:17.318Z,100.07
2023-02-06T06:17:06.410Z,96.30
2023-02-06T06:19:53.860Z,86.25
2023-02-06T06:22:41.387Z,102.68
2023-02-06T06:25:29.173Z,112.20
2023-02-06T06:28:17.028Z,95.85
2023-02-06T06:31:06.661Z,112.22
2023-02-06T06:33:55.373Z,100.22
2023-02-06T06:36:43.196Z,100.00
2023-02-06T06:39:30.797Z,134.35
2023-02-06T06:42:18.564Z,169.05
2023-02-06T06:45:06.898Z,209.43
2023-02-06T06:47:54.502Z,205.07
2023-02-06T06:50:43.463Z,223.75
2023-02-06T06:53:30.905Z,202.38
2023-02-06T06:56:18.381Z,204.13
2023-02-06T06:59:05.876Z,181.45
2023-02-06T07:01:53.947Z,165.85
2023-02-06T07:04:41.567Z,142.05
2023-02-06T07:07:30.430Z,152.52
2023-02-06T07:10:18.352Z,133.45
2023-02-06T07:13:06.140Z,133.45
2023-02-06T07:15:53.802Z,122.38
2023-02-06T07:18:43.044Z,128.95
2023-02-06T07:21:30.889Z,109.85
2023-02-06T07:24:20.091Z,106.75
2023-02-06T07:27:08.007Z,113.40
2023-02-06T07:29:55.636Z,113.00
2023-02-06T07:32:43.075Z,110.80
2023-02-06T07:35:30.561Z,115.25
2023-02-06T07:38:18.874Z,123.80
2023-02-06T07:41:08.275Z,115.35
2023-02-06T07:43:56.022Z,111.90
2023-02-06T07:46:43.921Z,107.10
2023-02-06T07:49:31.494Z,109.88
2023-02-06T07:52:20.280Z,106.57
2023-02-06T07:55:10.193Z,100.90
2023-02-06T07:57:58.963Z,95.82
2023-02-06T08:00:46.720Z,113.55
2023-02-06T08:03:34.778Z,110.60
2023-02-06T08:06:24.615Z,130.30
2023-02-06T08:09:14.668Z,129.05
2023-02-06T08:12:08.252Z,118.20
2023-02-06T08:14:57.688Z,118.53
2023-02-06T08:17:45.323Z,110.63
2023-02-06T08:20:32.853Z,108.80
2023-02-06T08:23:20.985Z,107.15
2023-02-06T08:26:10.992Z,102.65
2023-02-06T08:29:01.861Z,97.38
2023-02-06T08:31:51.159Z,93.55
2023-02-06T08:34:40.016Z,95.60
2023-02-06T08:37:27.605Z,97.13
2023-02-06T08:40:15.040Z,96.70
2023-02-06T08:43:02.793Z,87.75
2023-02-06T08:45:52.667Z,82.32
2023-02-06T08:48:41.930Z,79.90
2023-02-06T08:51:29.976Z,82.30
2023-02-06T08:54:20.611Z,85.95
2023-02-06T08:57:08.811Z,87.88
2023-02-06T08:59:56.376Z,89.13
2023-02-06T09:02:44.052Z,92.57
2023-02-06T09:05:33.299Z,101.38
2023-02-06T09:08:20.918Z,94.45
2023-02-06T09:11:09.396Z,97.80
2023-02-06T09:13:58.640Z,80.15
2023-02-06T09:16:46.308Z,71.28
2023-02-06T09:19:33.654Z,71.22
2023-02-06T09:22:22.344Z,54.30
2023-02-06T09:25:10.260Z,51.78
2023-02-06T09:27:58.078Z,44.40
2023-02-06T09:30:45.403Z,43.38
2023-02-06T09:33:33.056Z,46.08
2023-02-06T09:36:22.467Z,42.97
2023-02-06T09:39:11.265Z,48.15
2023-02-06T09:42:06.492Z,43.25
2023-02-06T09:45:01.956Z,43.47
2023-02-06T09:47:53.738Z,41.60
2023-02-06T09:50:52.660Z,39.65
2023-02-06T09:53:52.341Z,46.88
2023-02-06T09:56:49.158Z,42.42
2023-02-06T09:59:43.296Z,39.45
2023-02-06T10:02:47.770Z,36.97
2023-02-06T10:05:45.338Z,32.38
2023-02-06T10:08:38.687Z,36.38
2023-02-06T10:11:39.582Z,43.17
2023-02-06T10:14:36.136Z,35.50
2023-02-06T10:17:26.924Z,33.70
2023-02-06T10:20:19.459Z,38.17
2023-02-06T10:23:16.462Z,32.38
2023-02-06T10:26:17.281Z,34.90
2023-02-06T10:29:05.155Z,39.92
2023-02-06T10:32:12.446Z,35.72
2023-02-06T10:35:25.884Z,32.90
2023-02-06T10:38:31.381Z,36.42
2023-02-06T10:41:26.027Z,19.17
2023-02-06T10:44:23.690Z,14.85
2023-02-06T10:47:23.351Z,18.17
2023-02-06T10:50:22.162Z,18.90
2023-02-06T10:53:19.115Z,17.15
2023-02-06T10:58:58.279Z,18.40
2023-02-06T11:01:47.570Z,19.42
2023-02-06T11:04:39.888Z,20.02
2023-02-06T11:07:30.808Z,19.77
2023-02-06T11:10:20.279Z,17.83
2023-02-06T11:13:12.252Z,14.63
2023-02-06T11:16:04.203Z,15.95
2023-02-06T11:18:53.478Z,16.67
2023-02-06T11:21:55.447Z,17.88
2023-02-06T11:25:02.020Z,19.80
2023-02-06T11:27:50.396Z,21.05
2023-02-06T11:30:40.883Z,20.05
2023-02-06T11:33:37.189Z,23.20
2023-02-06T11:36:28.420Z,20.00
2023-02-06T11:39:26.090Z,28.73
2023-02-06T11:42:22.476Z,27.08
2023-02-06T11:48:34.178Z,19.77
2023-02-06T11:51:22.144Z,20.73
2023-02-06T11:54:21.234Z,19.73
2023-02-06T11:57:23.105Z,20.67
2023-02-06T12:00:22.156Z,16.40
2023-02-06T12:03:30.749Z,23.10
2023-02-06T12:06:23.124Z,16.60
2023-02-06T12:09:13.267Z,21.13
2023-02-06T12:12:06.237Z,16.17
2023-02-06T12:14:58.228Z,16.05
2023-02-06T12:17:51.379Z,14.75
2023-02-06T12:20:46.820Z,20.00
2023-02-06T12:23:38.315Z,15.65
2023-02-06T12:26:29.745Z,17.40
2023-02-06T12:29:21.318Z,25.27
2023-02-06T12:32:16.416Z,19.83
2023-02-06T12:35:15.594Z,12.77
2023-02-06T12:38:11.778Z,15.02
2023-02-06T12:41:14.952Z,16.23
2023-02-06T12:44:08.006Z,20.20
2023-02-06T12:47:02.541Z,12.38
2023-02-06T12:49:57.887Z,13.25
2023-02-06T12:52:50.593Z,16.05
2023-02-06T12:55:42.935Z,18.85
2023-02-06T12:58:35.934Z,17.23
2023-02-06T13:01:37.720Z,14.85
2023-02-06T13:04:29.183Z,18.95
2023-02-06T13:07:21.173Z,17.92
2023-02-06T13:10:09.482Z,22.38
2023-02-06T13:12:59.751Z,23.80
2023-02-06T13:15:54.944Z,20.45
2023-02-06T13:19:03.593Z,17.20
2023-02-06T13:22:16.804Z,20.60
2023-02-06T13:25:52.964Z,29.58
2023-02-06T13:28:47.705Z,27.45
2023-02-06T13:31:35.588Z,18.05
2023-02-06T13:34:23.363Z,15.60
2023-02-06T13:37:35.207Z,15.45
2023-02-06T13:40:32.280Z,16.15
2023-02-06T13:43:23.452Z,15.93
2023-02-06T13:46:14.799Z,24.83
2023-02-06T13:49:30.389Z,19.13
2023-02-06T13:52:25.117Z,17.90
2023-02-06T13:55:33.343Z,16.17
2023-02-06T13:58:47.633Z,14.25
2023-02-06T14:01:35.484Z,14.18
2023-02-06T14:04:26.577Z,18.58
2023-02-06T14:07:46.031Z,17.05
2023-02-06T14:11:02.959Z,17.13
2023-02-06T14:14:16.660Z,17.52
2023-02-06T14:17:14.644Z,14.10
2023-02-06T14:20:09.344Z,15.75
2023-02-06T14:23:05.929Z,16.42
2023-02-06T14:26:20.235Z,14.85
2023-02-06T14:29:23.363Z,15.60
2023-02-06T14:32:32.646Z,19.33
2023-02-06T14:35:35.749Z,18.95
2023-02-06T14:38:55.936Z,19.38
2023-02-06T14:41:44.006Z,13.23
2023-02-06T14:44:33.081Z,17.52
2023-02-06T14:47:23.825Z,16.77
2023-02-06T14:50:20.176Z,20.13
2023-02-06T14:53:10.693Z,16.58
2023-02-06T14:56:08.146Z,17.27
2023-02-06T14:58:56.055Z,28.73
2023-02-06T15:01:46.905Z,26.70
2023-02-06T15:04:38.552Z,25.92
2023-02-06T15:07:30.214Z,24.27
2023-02-06T15:10:27.261Z,27.08
2023-02-06T15:13:24.738Z,32.30
2023-02-06T15:16:12.213Z,26.13
2023-02-06T15:19:18.626Z,29.92
2023-02-06T15:22:12.649Z,38.38
2023-02-06T15:25:10.628Z,28.02
2023-02-06T15:28:02.936Z,26.75
2023-02-06T15:30:55.195Z,26.55
2023-02-06T15:33:42.831Z,24.60
2023-02-06T15:36:33.873Z,25.88
2023-02-06T15:39:21.809Z,25.65
2023-02-06T15:42:10.566Z,30.05
2023-02-06T15:44:58.495Z,26.90
2023-02-06T15:47:46.502Z,26.05
2023-02-06T15:50:34.157Z,30.55
2023-02-06T15:53:31.700Z,29.52
2023-02-06T15:56:25.868Z,22.27
2023-02-06T15:59:20.518Z,23.73
2023-02-06T16:02:09.385Z,24.67
2023-02-06T16:04:56.993Z,28.95
2023-02-06T16:07:49.054Z,24.63
2023-02-06T16:10:40.142Z,20.73
2023-02-06T16:13:31.762Z,25.52
2023-02-06T16:16:22.443Z,23.17
2023-02-06T16:19:30.277Z,26.50
2023-02-06T16:22:29.493Z,25.65
2023-02-06T16:25:23.136Z,30.58
2023-02-06T16:28:22.886Z,46.13
2023-02-06T16:31:14.441Z,49.42
2023-02-06T16:34:03.394Z,70.68
2023-02-06T16:36:51.208Z,81.78
2023-02-06T16:39:39.010Z,58.50
2023-02-06T16:42:33.484Z,60.88
2023-02-06T16:45:24.495Z,59.10
2023-02-06T16:48:13.441Z,59.72
2023-02-06T16:51:01.128Z,85.40
2023-02-06T16:53:49.515Z,77.18
2023-02-06T16:56:39.214Z,74.78
2023-02-06T16:59:26.777Z,57.83
2023-02-06T17:02:16.621Z,55.42
2023-02-06T17:05:05.134Z,47.40
2023-02-06T17:07:53.497Z,47.45
2023-02-06T17:10:41.018Z,72.85
2023-02-06T17:13:28.294Z,56.10
2023-02-06T17:16:19.818Z,47.17
2023-02-06T17:19:08.835Z,47.00
2023-02-06T17:21:56.687Z,40.85
2023-02-06T17:24:44.929Z,38.85
2023-02-06T17:27:32.537Z,37.20
2023-02-06T17:30:21.438Z,50.17
2023-02-06T17:33:09.847Z,58.70
2023-02-06T17:35:58.843Z,58.08
2023-02-06T17:38:46.446Z,52.58
2023-02-06T17:41:34.211Z,54.35
2023-02-06T17:44:22.036Z,58.08
2023-02-06T17:47:09.972Z,49.58
2023-02-06T17:49:57.593Z,50.58
2023-02-06T17:52:46.513Z,50.83
2023-02-06T17:55:36.340Z,61.70
2023-02-06T17:58:24.543Z,58.53
2023-02-06T18:01:12.871Z,50.10
2023-02-06T18:04:01.033Z,46.72
2023-02-06T18:06:49.230Z,50.15
2023-02-06T18:09:41.061Z,49.80
2023-02-06T18:12:29.723Z,43.78
2023-02-06T18:15:17.709Z,72.22
2023-02-06T18:18:05.695Z,97.00
2023-02-06T18:20:53.642Z,143.30
2023-02-06T18:23:41.578Z,120.60
2023-02-06T18:26:30.446Z,97.65
2023-02-06T18:29:18.026Z,82.80
2023-02-06T18:32:05.778Z,71.18
2023-02-06T18:34:53.146Z,73.63
2023-02-06T18:37:40.814Z,70.82
2023-02-06T18:40:28.413Z,76.45
2023-02-06T18:43:17.672Z,95.20
2023-02-06T18:46:08.183Z,97.35
2023-02-06T18:48:56.068Z,73.20
2023-02-06T18:51:43.896Z,78.63
2023-02-06T18:54:32.529Z,67.03
2023-02-06T18:57:20.084Z,76.90
2023-02-06T19:00:11.370Z,95.45
2023-02-06T19:02:59.755Z,73.80
2023-02-06T19:05:47.143Z,76.00
2023-02-06T19:08:34.802Z,67.18
2023-02-06T19:11:22.497Z,69.13
2023-02-06T19:14:12.883Z,64.93
2023-02-06T19:17:01.971Z,63.67
2023-02-06T19:19:49.593Z,64.07
2023-02-06T19:22:37.178Z,62.70
2023-02-06T19:25:24.883Z,57.35
2023-02-06T19:28:12.383Z,63.35
2023-02-06T19:31:01.811Z,61.53
2023-02-06T19:33:52.167Z,68.45
2023-02-06T19:36:39.810Z,52.58
2023-02-06T19:39:27.492Z,50.92
2023-02-06T19:42:16.955Z,44.63
2023-02-06T19:45:06.400Z,49.78
2023-02-06T19:47:53.902Z,53.75
2023-02-06T19:50:43.269Z,47.55
2023-02-06T19:53:32.844Z,52.55
2023-02-06T19:56:23.050Z,47.70
2023-02-06T19:59:18.236Z,75.32
2023-02-06T20:02:06.042Z,75.70
2023-02-06T20:04:53.892Z,68.18
2023-02-06T20:07:42.727Z,70.95
2023-02-06T20:10:30.562Z,72.63
2023-02-06T20:13:18.216Z,77.53
2023-02-06T20:16:07.296Z,66.45
2023-02-06T20:18:55.815Z,61.20
2023-02-06T20:21:45.194Z,55.65
2023-02-06T20:24:34.764Z,72.20
2023-02-06T20:27:22.366Z,59.88
2023-02-06T20:30:11.034Z,67.40
2023-02-06T20:32:58.603Z,60.47
2023-02-06T20:35:46.094Z,82.45
2023-02-06T20:38:33.651Z,70.63
2023-02-06T20:41:24.792Z,71.43
2023-02-06T20:44:13.338Z,75.53
2023-02-06T20:47:01.140Z,77.93
2023-02-06T20:49:48.861Z,80.82
2023-02-06T20:52:36.809Z,79.20
2023-02-06T20:55:24.316Z,78.47
2023-02-06T20:58:12.969Z,82.47
2023-02-06T21:01:00.707Z,80.85
2023-02-06T21:03:49.207Z,80.00
2023-02-06T21:06:38.690Z,72.22
2023-02-06T21:09:26.815Z,79.57
2023-02-06T21:12:14.550Z,80.60
2023-02-06T21:15:03.498Z,81.35
2023-02-06T21:17:51.381Z,68.78
2023-02-06T21:20:39.077Z,83.47
2023-02-06T21:23:26.816Z,77.57
2023-02-06T21:26:14.839Z,81.45
2023-02-06T21:29:04.025Z,83.78
2023-02-06T21:32:07.188Z,88.38
2023-02-06T21:34:59.906Z,78.53
2023-02-06T21:37:47.316Z,81.60
2023-02-06T21:40:34.757Z,80.53
2023-02-06T21:43:22.597Z,91.65
2023-02-06T21:46:11.019Z,80.97
2023-02-06T21:49:00.364Z,81.45
2023-02-06T21:51:47.850Z,88.85
2023-02-06T21:54:35.205Z,79.60
2023-02-06T21:57:22.909Z,90.47
2023-02-06T22:00:11.634Z,86.70
2023-02-06T22:03:02.665Z,96.25
2023-02-06T22:05:51.558Z,90.30
2023-02-06T22:08:40.980Z,89.07
2023-02-06T22:11:30.870Z,91.22
2023-02-06T22:14:19.550Z,104.75
2023-02-06T22:17:07.447Z,91.38
2023-02-06T22:19:55.161Z,87.90
2023-02-06T22:22:44.360Z,80.50
2023-02-06T22:25:32.179Z,73.07
2023-02-06T22:28:19.480Z,83.45
2023-02-06T22:31:08.333Z,84.13
2023-02-06T22:33:56.455Z,79.78
2023-02-06T22:36:44.875Z,75.97
2023-02-06T22:39:33.873Z,83.20
2023-02-06T22:42:21.422Z,74.75
2023-02-06T22:45:09.340Z,83.47
2023-02-06T22:47:57.183Z,95.68
2023-02-06T22:50:44.727Z,97.22
2023-02-06T22:53:32.289Z,74.75
2023-02-06T22:56:29.662Z,98.88
2023-02-06T22:59:19.501Z,91.57
2023-02-06T23:02:07.271Z,102.90
2023-02-06T23:04:54.680Z,104.82
2023-02-06T23:07:42.172Z,116.53
2023-02-06T23:10:29.549Z,100.18
2023-02-06T23:13:18.585Z,114.63
2023-02-06T23:16:06.772Z,110.22
2023-02-06T23:18:54.556Z,106.43
2023-02-06T23:21:45.272Z,98.28
2023-02-06T23:24:32.563Z,94.00
2023-02-06T23:27:21.069Z,94.15
2023-02-06T23:30:11.426Z,90.22
2023-02-06T23:32:59.100Z,78.07
2023-02-06T23:35:46.637Z,95.75
2023-02-06T23:38:34.510Z,86.15
2023-02-06T23:41:24.532Z,84.78
2023-02-06T23:44:12.269Z,84.20
2023-02-06T23:47:01.185Z,106.65
2023-02-06T23:49:48.926Z,91.63
2023-02-06T23:52:36.596Z,100.55
2023-02-06T23:55:24.939Z,104.90
2023-02-06T23:58:12.807Z,92.80
